EFW16EA EGKK-LMML
Flight info
| Callsign | EFW16EA |
|---|---|
| Flight time | N/A |
| Altitude | 35000 |
| Route | SFD Y47 BENBO L612 HAWKE UL612 OGULO DCT OKASI DCT OKEKO DCT MOU DCT MADIV DCT MOKIP DCT TUFTA DCT KOGAS DCT MEDAM DCT NITAM DCT MOGBO DCT BAKRO DCT RONAB DCT GIANO DCT MARON DCT EKOLA L12 GZO |
| Aircraft | A320/M-SDE3FGHIRWY/LB1 |
Departure
| Time | N/A |
|---|---|
| Airport | London Gatwick Airport (EGKK) |
Arrival
| Time | 2026-05-05 18:37 |
|---|---|
| Airport | Malta International Airport (LMML) |
| Time | Latitude | Longitude | Altitude | Speed | Heading |
|---|---|---|---|---|---|
| 2026-05-05 17:41 | 41.30995 | 11.04908 | 35029 ft | 451 kts | 163° |
| 2026-05-05 17:42 | 41.28165 | 11.06607 | 35030 ft | 451 kts | 163° |
| 2026-05-05 17:42 | 41.22440 | 11.10035 | 35008 ft | 451 kts | 163° |
| 2026-05-05 17:43 | 41.16698 | 11.13461 | 35006 ft | 452 kts | 163° |
| 2026-05-05 17:43 | 41.10937 | 11.16881 | 35016 ft | 454 kts | 163° |
| 2026-05-05 17:44 | 41.05204 | 11.20288 | 35025 ft | 454 kts | 163° |
| 2026-05-05 17:44 | 40.99431 | 11.23711 | 35013 ft | 455 kts | 163° |
| 2026-05-05 17:45 | 40.93643 | 11.27140 | 35024 ft | 455 kts | 163° |
| 2026-05-05 17:45 | 40.87874 | 11.30543 | 35025 ft | 456 kts | 162° |
| 2026-05-05 17:46 | 40.82082 | 11.33949 | 35029 ft | 456 kts | 162° |
| 2026-05-05 17:46 | 40.76284 | 11.37364 | 35027 ft | 456 kts | 162° |
| 2026-05-05 17:47 | 40.70488 | 11.40773 | 35055 ft | 456 kts | 162° |
| 2026-05-05 17:47 | 40.64733 | 11.44143 | 35058 ft | 455 kts | 162° |
| 2026-05-05 17:48 | 40.58940 | 11.47531 | 35063 ft | 455 kts | 162° |
| 2026-05-05 17:48 | 40.53167 | 11.50905 | 35051 ft | 454 kts | 162° |
| 2026-05-05 17:49 | 40.47380 | 11.54278 | 35054 ft | 454 kts | 162° |
| 2026-05-05 17:49 | 40.41600 | 11.57640 | 35057 ft | 454 kts | 162° |
| 2026-05-05 17:50 | 40.35824 | 11.60989 | 35061 ft | 454 kts | 162° |
| 2026-05-05 17:50 | 40.30048 | 11.64341 | 35045 ft | 454 kts | 162° |
| 2026-05-05 17:51 | 40.24298 | 11.67676 | 35047 ft | 455 kts | 162° |
| 2026-05-05 17:51 | 40.18496 | 11.71024 | 35037 ft | 456 kts | 162° |
| 2026-05-05 17:52 | 40.12680 | 11.74378 | 35043 ft | 457 kts | 162° |
| 2026-05-05 17:52 | 40.06844 | 11.77725 | 35055 ft | 458 kts | 162° |
| 2026-05-05 17:53 | 40.01008 | 11.81072 | 35058 ft | 459 kts | 162° |
| 2026-05-05 17:53 | 39.95160 | 11.84428 | 35064 ft | 459 kts | 162° |
| 2026-05-05 17:54 | 39.90318 | 11.87199 | 35066 ft | 459 kts | 162° |
| 2026-05-05 17:54 | 39.84473 | 11.90532 | 35055 ft | 459 kts | 161° |
| 2026-05-05 17:55 | 39.78624 | 11.93836 | 35068 ft | 458 kts | 161° |
| 2026-05-05 17:55 | 39.72777 | 11.97120 | 35070 ft | 458 kts | 161° |
| 2026-05-05 17:56 | 39.66923 | 12.00398 | 35074 ft | 458 kts | 162° |
| 2026-05-05 17:56 | 39.61074 | 12.03676 | 35068 ft | 457 kts | 161° |
| 2026-05-05 17:57 | 39.55272 | 12.06930 | 35057 ft | 458 kts | 161° |
| 2026-05-05 17:57 | 39.49414 | 12.10197 | 35065 ft | 458 kts | 161° |
| 2026-05-05 17:58 | 39.43558 | 12.13456 | 35076 ft | 458 kts | 161° |
| 2026-05-05 17:58 | 39.37694 | 12.16709 | 35060 ft | 458 kts | 161° |
| 2026-05-05 17:59 | 39.31831 | 12.19971 | 35070 ft | 458 kts | 161° |
| 2026-05-05 17:59 | 39.26015 | 12.23199 | 35075 ft | 457 kts | 161° |
| 2026-05-05 18:00 | 39.20167 | 12.26436 | 35075 ft | 457 kts | 161° |
| 2026-05-05 18:00 | 39.14328 | 12.29661 | 35064 ft | 457 kts | 161° |
| 2026-05-05 18:01 | 39.08489 | 12.32893 | 35070 ft | 456 kts | 161° |
| 2026-05-05 18:01 | 39.02655 | 12.36107 | 35068 ft | 456 kts | 161° |
| 2026-05-05 18:02 | 38.96835 | 12.39310 | 35065 ft | 456 kts | 161° |
| 2026-05-05 18:02 | 38.91004 | 12.42505 | 35044 ft | 456 kts | 161° |
| 2026-05-05 18:03 | 38.85259 | 12.45911 | 35048 ft | 460 kts | 155° |
| 2026-05-05 18:03 | 38.79657 | 12.49882 | 35058 ft | 460 kts | 155° |
| 2026-05-05 18:04 | 38.74038 | 12.53862 | 35065 ft | 460 kts | 155° |
| 2026-05-05 18:04 | 38.68426 | 12.57830 | 35062 ft | 460 kts | 155° |
| 2026-05-05 18:05 | 38.62827 | 12.61775 | 35054 ft | 460 kts | 155° |
| 2026-05-05 18:05 | 38.57203 | 12.65734 | 35059 ft | 461 kts | 155° |
| 2026-05-05 18:06 | 38.51624 | 12.69648 | 35059 ft | 461 kts | 155° |
| 2026-05-05 18:06 | 38.46015 | 12.73587 | 35061 ft | 461 kts | 155° |
| 2026-05-05 18:07 | 38.40406 | 12.77520 | 35042 ft | 460 kts | 155° |
| 2026-05-05 18:07 | 38.34784 | 12.81451 | 35047 ft | 461 kts | 155° |
| 2026-05-05 18:08 | 38.29168 | 12.85356 | 35054 ft | 461 kts | 155° |
| 2026-05-05 18:08 | 38.23549 | 12.89261 | 35053 ft | 461 kts | 155° |
| 2026-05-05 18:09 | 38.17928 | 12.93176 | 35052 ft | 461 kts | 155° |
| 2026-05-05 18:09 | 38.12316 | 12.97081 | 35050 ft | 460 kts | 155° |
| 2026-05-05 18:10 | 38.06702 | 13.00965 | 35059 ft | 459 kts | 155° |
| 2026-05-05 18:10 | 38.01119 | 13.04821 | 35062 ft | 458 kts | 155° |
| 2026-05-05 18:11 | 37.95551 | 13.08670 | 35081 ft | 458 kts | 155° |
| 2026-05-05 18:11 | 37.89964 | 13.12528 | 35076 ft | 457 kts | 155° |
| 2026-05-05 18:12 | 37.84375 | 13.16367 | 35076 ft | 457 kts | 155° |
| 2026-05-05 18:12 | 37.78778 | 13.20203 | 35080 ft | 457 kts | 155° |
| 2026-05-05 18:13 | 37.73187 | 13.24032 | 35081 ft | 457 kts | 155° |
| 2026-05-05 18:13 | 37.67590 | 13.27858 | 35088 ft | 457 kts | 155° |
| 2026-05-05 18:14 | 37.62006 | 13.31679 | 35091 ft | 457 kts | 155° |
| 2026-05-05 18:14 | 37.56423 | 13.35497 | 34690 ft | 454 kts | 155° |
| 2026-05-05 18:14 | 37.53646 | 13.37387 | 34067 ft | 455 kts | 155° |
| 2026-05-05 18:15 | 37.50855 | 13.39282 | 33345 ft | 455 kts | 155° |
| 2026-05-05 18:15 | 37.48069 | 13.41173 | 32804 ft | 452 kts | 155° |
| 2026-05-05 18:15 | 37.45310 | 13.43044 | 32282 ft | 449 kts | 155° |
| 2026-05-05 18:15 | 37.42565 | 13.44904 | 31756 ft | 446 kts | 155° |
| 2026-05-05 18:16 | 37.39844 | 13.46748 | 31258 ft | 442 kts | 155° |
| 2026-05-05 18:16 | 37.37149 | 13.48576 | 30767 ft | 439 kts | 155° |
| 2026-05-05 18:16 | 37.34503 | 13.50373 | 30275 ft | 436 kts | 155° |
| 2026-05-05 18:16 | 37.31835 | 13.52183 | 29694 ft | 434 kts | 155° |
| 2026-05-05 18:17 | 37.29182 | 13.53975 | 29160 ft | 431 kts | 155° |
| 2026-05-05 18:17 | 37.26546 | 13.55752 | 28644 ft | 428 kts | 155° |
| 2026-05-05 18:17 | 37.23934 | 13.57512 | 28138 ft | 424 kts | 155° |
| 2026-05-05 18:17 | 37.21342 | 13.59262 | 27643 ft | 421 kts | 155° |
| 2026-05-05 18:18 | 37.18770 | 13.60996 | 27181 ft | 418 kts | 155° |
| 2026-05-05 18:18 | 37.16218 | 13.62715 | 26716 ft | 415 kts | 155° |
| 2026-05-05 18:18 | 37.13677 | 13.64423 | 26296 ft | 412 kts | 155° |
| 2026-05-05 18:18 | 37.11102 | 13.65958 | 25875 ft | 407 kts | 161° |
| 2026-05-05 18:19 | 37.08491 | 13.67297 | 25463 ft | 405 kts | 161° |
| 2026-05-05 18:19 | 37.05890 | 13.68634 | 25065 ft | 402 kts | 161° |
| 2026-05-05 18:19 | 37.03306 | 13.69965 | 24685 ft | 400 kts | 161° |
| 2026-05-05 18:19 | 37.00736 | 13.71289 | 24301 ft | 398 kts | 161° |
| 2026-05-05 18:20 | 36.98183 | 13.72605 | 23920 ft | 396 kts | 161° |
| 2026-05-05 18:20 | 36.95642 | 13.73913 | 23516 ft | 394 kts | 161° |
| 2026-05-05 18:20 | 36.93143 | 13.75198 | 23065 ft | 391 kts | 161° |
| 2026-05-05 18:20 | 36.90634 | 13.76488 | 22600 ft | 389 kts | 160° |
| 2026-05-05 18:21 | 36.88140 | 13.77770 | 22162 ft | 386 kts | 160° |
| 2026-05-05 18:21 | 36.85665 | 13.79039 | 21718 ft | 383 kts | 160° |
| 2026-05-05 18:21 | 36.83201 | 13.80300 | 21270 ft | 381 kts | 160° |
| 2026-05-05 18:21 | 36.80763 | 13.81548 | 20824 ft | 378 kts | 160° |
| 2026-05-05 18:22 | 36.78335 | 13.82790 | 20381 ft | 376 kts | 160° |
| 2026-05-05 18:22 | 36.75925 | 13.84024 | 19941 ft | 373 kts | 160° |
| 2026-05-05 18:22 | 36.73531 | 13.85246 | 19505 ft | 371 kts | 160° |
| 2026-05-05 18:22 | 36.71150 | 13.86460 | 19075 ft | 369 kts | 160° |
| 2026-05-05 18:23 | 36.68783 | 13.87668 | 18649 ft | 367 kts | 160° |
| 2026-05-05 18:23 | 36.66426 | 13.88871 | 18159 ft | 366 kts | 160° |
| 2026-05-05 18:23 | 36.64076 | 13.90068 | 17678 ft | 364 kts | 160° |
| 2026-05-05 18:23 | 36.61740 | 13.91256 | 17215 ft | 361 kts | 160° |
| 2026-05-05 18:24 | 36.59422 | 13.92434 | 16731 ft | 359 kts | 160° |
| 2026-05-05 18:24 | 36.57118 | 13.93603 | 16279 ft | 357 kts | 160° |
| 2026-05-05 18:24 | 36.54825 | 13.94771 | 15811 ft | 355 kts | 160° |
| 2026-05-05 18:24 | 36.52548 | 13.95932 | 15340 ft | 353 kts | 160° |
| 2026-05-05 18:25 | 36.50277 | 13.97088 | 14877 ft | 352 kts | 160° |
| 2026-05-05 18:25 | 36.48783 | 13.97846 | 14569 ft | 350 kts | 160° |
| 2026-05-05 18:25 | 36.45770 | 13.99373 | 13942 ft | 349 kts | 160° |
| 2026-05-05 18:25 | 36.43528 | 14.00510 | 13454 ft | 347 kts | 160° |
| 2026-05-05 18:26 | 36.41341 | 14.01733 | 12808 ft | 344 kts | 156° |
| 2026-05-05 18:26 | 36.39200 | 14.03098 | 12084 ft | 343 kts | 154° |
| 2026-05-05 18:26 | 36.37131 | 14.04479 | 11656 ft | 333 kts | 153° |
| 2026-05-05 18:26 | 36.35120 | 14.05844 | 11223 ft | 325 kts | 153° |
| 2026-05-05 18:27 | 36.33159 | 14.07179 | 10789 ft | 321 kts | 153° |
| 2026-05-05 18:27 | 36.31197 | 14.08504 | 10385 ft | 321 kts | 153° |
| 2026-05-05 18:27 | 36.29263 | 14.09802 | 10233 ft | 310 kts | 153° |
| 2026-05-05 18:27 | 36.27396 | 14.11049 | 10099 ft | 301 kts | 153° |
| 2026-05-05 18:28 | 36.23744 | 14.13475 | 9442 ft | 295 kts | 153° |
| 2026-05-05 18:28 | 36.21937 | 14.14670 | 8958 ft | 291 kts | 153° |
| 2026-05-05 18:28 | 36.20170 | 14.15841 | 8554 ft | 285 kts | 153° |
| 2026-05-05 18:29 | 36.18434 | 14.16992 | 7987 ft | 281 kts | 154° |
| 2026-05-05 18:29 | 36.16719 | 14.18132 | 7409 ft | 278 kts | 153° |
| 2026-05-05 18:29 | 36.15024 | 14.19256 | 6876 ft | 275 kts | 153° |
| 2026-05-05 18:29 | 36.13351 | 14.20364 | 6309 ft | 271 kts | 152° |
| 2026-05-05 18:30 | 36.11695 | 14.21460 | 5694 ft | 270 kts | 153° |
| 2026-05-05 18:30 | 36.10036 | 14.22557 | 5325 ft | 268 kts | 152° |
| 2026-05-05 18:30 | 36.08411 | 14.23632 | 5146 ft | 261 kts | 153° |
| 2026-05-05 18:30 | 36.06829 | 14.24679 | 5008 ft | 253 kts | 153° |
| 2026-05-05 18:31 | 36.05306 | 14.25686 | 4879 ft | 244 kts | 153° |
| 2026-05-05 18:31 | 36.03830 | 14.26661 | 4718 ft | 237 kts | 153° |
| 2026-05-05 18:31 | 36.02404 | 14.27602 | 4543 ft | 234 kts | 153° |
| 2026-05-05 18:31 | 36.01067 | 14.28686 | 4389 ft | 227 kts | 139° |
| 2026-05-05 18:32 | 35.99951 | 14.30046 | 4162 ft | 223 kts | 135° |
| 2026-05-05 18:32 | 35.98874 | 14.31417 | 3881 ft | 221 kts | 136° |
| 2026-05-05 18:32 | 35.97811 | 14.32751 | 3596 ft | 213 kts | 135° |
| 2026-05-05 18:32 | 35.96798 | 14.34015 | 3340 ft | 202 kts | 136° |
| 2026-05-05 18:33 | 35.95823 | 14.35229 | 3087 ft | 197 kts | 136° |
| 2026-05-05 18:33 | 35.94867 | 14.36418 | 2810 ft | 192 kts | 135° |
| 2026-05-05 18:33 | 35.93953 | 14.37557 | 2559 ft | 179 kts | 136° |
| 2026-05-05 18:33 | 35.93109 | 14.38607 | 2329 ft | 166 kts | 135° |
| 2026-05-05 18:34 | 35.92327 | 14.39578 | 2127 ft | 153 kts | 135° |
| 2026-05-05 18:34 | 35.91607 | 14.40472 | 1906 ft | 142 kts | 136° |
| 2026-05-05 18:34 | 35.90903 | 14.41345 | 1746 ft | 143 kts | 136° |
| 2026-05-05 18:34 | 35.90208 | 14.42213 | 1558 ft | 140 kts | 135° |
| 2026-05-05 18:35 | 35.89514 | 14.43074 | 1399 ft | 142 kts | 135° |
| 2026-05-05 18:35 | 35.88816 | 14.43941 | 1203 ft | 141 kts | 135° |
| 2026-05-05 18:35 | 35.88141 | 14.44777 | 1013 ft | 139 kts | 135° |
| 2026-05-05 18:35 | 35.87462 | 14.45618 | 820 ft | 141 kts | 134° |
| 2026-05-05 18:36 | 35.86767 | 14.46475 | 638 ft | 141 kts | 133° |
| 2026-05-05 18:36 | 35.86085 | 14.47324 | 420 ft | 137 kts | 134° |
| 2026-05-05 18:36 | 35.85428 | 14.48143 | 275 ft | 128 kts | 134° |
| 2026-05-05 18:36 | 35.84945 | 14.48743 | 260 ft | 58 kts | 135° |
| 2026-05-05 18:37 | 35.84687 | 14.49064 | 259 ft | 53 kts | 135° |
| 2026-05-05 18:37 | 35.84502 | 14.49321 | 259 ft | 35 kts | 120° |
| 2026-05-05 18:37 | 35.84450 | 14.49488 | 259 ft | 12 kts | 106° |
| 2026-05-05 18:37 | 35.84477 | 14.49569 | 259 ft | 13 kts | 31° |
| 2026-05-05 18:38 | 35.84558 | 14.49534 | 259 ft | 14 kts | 337° |
| 2026-05-05 18:38 | 35.84611 | 14.49560 | 259 ft | 13 kts | 47° |
| 2026-05-05 18:38 | 35.84695 | 14.49557 | 259 ft | 14 kts | 328° |
| 2026-05-05 18:38 | 35.84760 | 14.49483 | 259 ft | 9 kts | 315° |
| 2026-05-05 18:39 | 35.84824 | 14.49456 | 259 ft | 11 kts | 359° |
| 2026-05-05 18:39 | 35.84860 | 14.49455 | 259 ft | 2 kts | 359° |
| 2026-05-05 18:39 | 35.84861 | 14.49455 | 259 ft | 0 kts | 359° |